createdAt,value
2022-10-19T00:01:18.800Z,14.10
2022-10-19T00:03:46.190Z,33.40
2022-10-19T00:06:25.591Z,11.10
2022-10-19T00:08:53.073Z,14.27
2022-10-19T00:11:19.466Z,12.32
2022-10-19T00:13:45.910Z,16.77
2022-10-19T00:16:13.131Z,21.88
2022-10-19T00:18:40.493Z,11.90
2022-10-19T00:21:08.318Z,11.90
2022-10-19T00:23:35.065Z,19.05
2022-10-19T00:26:01.746Z,14.25
2022-10-19T00:28:28.273Z,15.30
2022-10-19T00:30:54.752Z,20.48
2022-10-19T00:33:22.474Z,19.50
2022-10-19T00:35:50.067Z,17.15
2022-10-19T00:38:17.212Z,14.43
2022-10-19T00:40:43.790Z,26.25
2022-10-19T00:43:14.560Z,17.55
2022-10-19T00:45:40.961Z,21.15
2022-10-19T00:48:07.654Z,19.48
2022-10-19T00:50:34.084Z,22.13
2022-10-19T00:53:00.568Z,12.05
2022-10-19T00:55:27.728Z,15.40
2022-10-19T00:57:54.130Z,21.55
2022-10-19T01:00:22.861Z,18.20
2022-10-19T01:02:49.320Z,14.02
2022-10-19T01:05:16.123Z,17.15
2022-10-19T01:07:42.605Z,19.17
2022-10-19T01:10:11.808Z,20.10
2022-10-19T01:12:57.026Z,16.15
2022-10-19T01:15:23.405Z,16.10
2022-10-19T01:17:49.932Z,12.15
2022-10-19T01:20:22.505Z,11.63
2022-10-19T01:22:48.861Z,17.60
2022-10-19T01:25:34.058Z,12.95
2022-10-19T01:28:00.436Z,13.27
2022-10-19T01:30:45.847Z,14.07
2022-10-19T01:33:17.192Z,16.40
2022-10-19T01:35:50.264Z,14.35
2022-10-19T01:38:23.281Z,24.40
2022-10-19T01:41:04.267Z,16.88
2022-10-19T01:43:39.997Z,16.02
2022-10-19T01:46:11.052Z,18.58
2022-10-19T01:48:38.844Z,23.20
2022-10-19T01:51:07.180Z,21.08
2022-10-19T01:53:39.095Z,13.93
2022-10-19T01:56:06.064Z,15.20
2022-10-19T01:58:35.491Z,16.85
2022-10-19T02:01:04.237Z,13.52
2022-10-19T02:03:31.286Z,15.45
2022-10-19T02:05:58.290Z,16.48
2022-10-19T02:08:27.428Z,11.63
2022-10-19T02:10:54.922Z,32.63
2022-10-19T02:13:21.835Z,12.27
2022-10-19T02:15:50.019Z,17.40
2022-10-19T02:18:18.433Z,14.43
2022-10-19T02:20:45.384Z,16.42
2022-10-19T02:23:13.246Z,13.30
2022-10-19T02:25:39.786Z,19.33
2022-10-19T02:28:06.301Z,16.95
2022-10-19T02:30:32.763Z,12.65
2022-10-19T02:32:59.326Z,14.27
2022-10-19T02:35:25.796Z,12.57
2022-10-19T02:37:52.277Z,12.68
2022-10-19T02:40:18.828Z,14.77
2022-10-19T02:42:51.546Z,18.50
2022-10-19T02:45:32.288Z,19.80
2022-10-19T02:48:00.764Z,15.90
2022-10-19T02:50:28.063Z,14.60
2022-10-19T02:52:54.464Z,9.00
2022-10-19T02:55:20.923Z,14.48
2022-10-19T02:57:47.306Z,11.93
2022-10-19T03:00:13.839Z,12.50
2022-10-19T03:02:40.396Z,11.90
2022-10-19T03:05:07.030Z,12.20
2022-10-19T03:07:33.670Z,18.63
2022-10-19T03:10:00.212Z,11.82
2022-10-19T03:12:26.589Z,13.57
2022-10-19T03:14:52.965Z,18.27
2022-10-19T03:17:19.482Z,17.08
2022-10-19T03:19:48.837Z,18.60
2022-10-19T03:22:15.338Z,9.65
2022-10-19T03:24:41.919Z,12.25
2022-10-19T03:27:08.414Z,14.30
2022-10-19T03:29:34.795Z,17.17
2022-10-19T03:32:01.176Z,15.23
2022-10-19T03:34:27.520Z,14.93
2022-10-19T03:36:54.157Z,15.27
2022-10-19T03:39:20.527Z,13.88
2022-10-19T03:41:46.903Z,16.08
2022-10-19T03:44:13.449Z,9.80
2022-10-19T03:46:39.991Z,17.17
2022-10-19T03:49:06.584Z,17.45
2022-10-19T03:51:33.108Z,12.82
2022-10-19T03:54:02.439Z,13.98
2022-10-19T03:56:29.777Z,12.88
2022-10-19T03:58:57.148Z,19.05
2022-10-19T04:01:25.145Z,18.00
2022-10-19T04:03:55.867Z,14.30
2022-10-19T04:06:24.580Z,10.60
2022-10-19T04:08:51.154Z,13.18
2022-10-19T04:11:18.822Z,14.00
2022-10-19T04:13:47.566Z,15.35
2022-10-19T04:16:13.958Z,14.88
2022-10-19T04:18:40.354Z,15.55
2022-10-19T04:21:07.212Z,10.82
2022-10-19T04:23:34.978Z,14.32
2022-10-19T04:26:02.861Z,16.83
2022-10-19T04:28:29.420Z,17.98
2022-10-19T04:30:56.182Z,15.07
2022-10-19T04:33:22.856Z,15.90
2022-10-19T04:35:49.258Z,16.27
2022-10-19T04:38:15.646Z,11.52
2022-10-19T04:40:42.053Z,18.27
2022-10-19T04:43:08.460Z,15.35
2022-10-19T04:45:35.572Z,17.30
2022-10-19T04:48:02.315Z,24.27
2022-10-19T04:50:28.798Z,24.70
2022-10-19T04:52:55.392Z,18.77
2022-10-19T04:55:21.801Z,11.70
2022-10-19T04:57:48.197Z,17.58
2022-10-19T05:00:14.852Z,30.55
2022-10-19T05:02:44.758Z,15.70
2022-10-19T05:05:11.886Z,18.00
2022-10-19T05:07:38.385Z,20.42
2022-10-19T05:10:05.429Z,27.52
2022-10-19T05:12:31.820Z,24.13
2022-10-19T05:14:58.351Z,32.45
2022-10-19T05:17:24.713Z,49.78
2022-10-19T05:19:51.095Z,44.15
2022-10-19T05:22:17.560Z,68.60
2022-10-19T05:24:44.015Z,34.08
2022-10-19T05:27:10.479Z,32.65
2022-10-19T05:29:36.923Z,48.00
2022-10-19T05:32:03.359Z,49.05
2022-10-19T05:34:29.773Z,33.67
2022-10-19T05:36:56.733Z,29.42
2022-10-19T05:39:23.457Z,45.25
2022-10-19T05:41:49.972Z,35.35
2022-10-19T05:44:17.608Z,29.40
2022-10-19T05:46:44.313Z,49.83
2022-10-19T05:49:11.752Z,47.08
2022-10-19T05:51:38.644Z,34.50
2022-10-19T05:54:05.311Z,38.75
2022-10-19T05:56:32.212Z,32.78
2022-10-19T05:59:00.440Z,25.33
2022-10-19T06:01:27.514Z,33.65
2022-10-19T06:03:54.971Z,43.22
2022-10-19T06:06:21.807Z,24.35
2022-10-19T06:08:48.502Z,41.50
2022-10-19T06:11:19.997Z,48.58
2022-10-19T06:13:47.166Z,33.13
2022-10-19T06:16:14.997Z,41.60
2022-10-19T06:18:42.769Z,27.35
2022-10-19T06:21:13.915Z,34.67
2022-10-19T06:26:14.363Z,22.23
2022-10-19T06:28:52.466Z,26.80
2022-10-19T06:31:20.111Z,49.63
2022-10-19T06:33:49.642Z,20.77
2022-10-19T06:36:18.488Z,31.38
2022-10-19T06:38:45.057Z,24.95
2022-10-19T06:41:11.824Z,28.05
2022-10-19T06:43:38.254Z,29.90
2022-10-19T06:46:07.361Z,25.38
2022-10-19T06:48:35.238Z,24.30
2022-10-19T06:51:06.394Z,36.08
2022-10-19T06:53:37.128Z,32.20
2022-10-19T06:56:06.559Z,26.25
2022-10-19T06:58:36.977Z,40.28
2022-10-19T07:01:04.146Z,20.35
2022-10-19T07:03:30.866Z,24.73
2022-10-19T07:05:58.641Z,39.60
2022-10-19T07:08:25.667Z,28.45
2022-10-19T07:10:52.952Z,32.30
2022-10-19T07:13:19.625Z,49.15
2022-10-19T07:15:46.199Z,38.50
2022-10-19T07:18:13.146Z,43.17
2022-10-19T07:20:39.658Z,88.45
2022-10-19T07:23:06.269Z,55.90
2022-10-19T07:25:32.803Z,54.75
2022-10-19T07:27:59.350Z,75.90
2022-10-19T07:30:26.567Z,46.40
2022-10-19T07:32:53.136Z,110.88
2022-10-19T07:35:19.598Z,81.55
2022-10-19T07:37:46.002Z,72.15
2022-10-19T07:40:12.996Z,66.82
2022-10-19T07:42:39.460Z,47.22
2022-10-19T07:45:06.188Z,59.42
2022-10-19T07:47:37.136Z,63.15
2022-10-19T07:50:03.901Z,120.70
2022-10-19T07:52:33.045Z,79.05
2022-10-19T07:55:02.484Z,62.58
2022-10-19T07:57:28.894Z,65.43
2022-10-19T07:59:56.743Z,58.03
2022-10-19T08:02:30.750Z,54.55
2022-10-19T08:05:09.149Z,70.53
2022-10-19T08:07:46.351Z,54.35
2022-10-19T08:10:12.824Z,73.32
2022-10-19T08:12:39.364Z,135.38
2022-10-19T08:15:07.132Z,81.80
2022-10-19T08:17:39.986Z,97.40
2022-10-19T08:20:09.874Z,108.78
2022-10-19T08:22:36.770Z,87.72
2022-10-19T08:25:04.279Z,115.80
2022-10-19T08:27:30.786Z,111.15
2022-10-19T08:29:57.223Z,132.85
2022-10-19T08:32:24.165Z,104.63
2022-10-19T08:34:50.633Z,79.07
2022-10-19T08:37:39.601Z,56.55
2022-10-19T08:40:04.054Z,74.63
2022-10-19T08:42:47.971Z,119.85
2022-10-19T08:45:14.613Z,56.97
2022-10-19T08:47:41.275Z,59.15
2022-10-19T08:50:21.916Z,56.25
2022-10-19T08:52:52.892Z,66.30
2022-10-19T08:55:26.362Z,53.97
2022-10-19T08:58:06.782Z,57.55
2022-10-19T09:00:51.990Z,40.17
2022-10-19T09:03:31.925Z,66.43
2022-10-19T09:06:29.202Z,27.38
2022-10-19T09:09:01.679Z,36.58
2022-10-19T09:11:31.505Z,40.40
2022-10-19T09:14:05.693Z,49.22
2022-10-19T09:16:35.146Z,33.40
2022-10-19T09:19:02.149Z,32.58
2022-10-19T09:21:47.310Z,22.23
2022-10-19T09:24:34.342Z,18.58
2022-10-19T09:27:01.441Z,26.05
2022-10-19T09:29:38.644Z,14.07
2022-10-19T09:32:11.212Z,16.13
2022-10-19T09:34:53.462Z,17.65
2022-10-19T09:37:26.097Z,34.47
2022-10-19T09:39:55.154Z,13.77
2022-10-19T09:42:30.278Z,13.38
2022-10-19T09:45:01.824Z,24.20
2022-10-19T09:47:35.790Z,30.60
2022-10-19T09:50:19.869Z,9.07
2022-10-19T09:52:47.646Z,7.50
2022-10-19T09:55:34.891Z,27.63
2022-10-19T09:58:03.326Z,10.57
2022-10-19T10:00:34.675Z,11.98
2022-10-19T10:03:01.148Z,10.77
2022-10-19T10:05:46.457Z,11.05
2022-10-19T10:08:17.192Z,11.93
2022-10-19T10:10:47.315Z,16.08
2022-10-19T10:13:18.947Z,8.45
2022-10-19T10:15:48.716Z,9.95
2022-10-19T10:18:16.580Z,11.45
2022-10-19T10:21:01.829Z,9.65
2022-10-19T10:23:31.405Z,8.48
2022-10-19T10:25:58.940Z,6.40
2022-10-19T10:28:26.480Z,9.52
2022-10-19T10:30:54.462Z,8.15
2022-10-19T10:33:43.815Z,6.28
2022-10-19T10:36:11.375Z,9.68
2022-10-19T10:38:43.381Z,9.70
2022-10-19T10:41:12.811Z,12.55
2022-10-19T10:43:49.215Z,6.13
2022-10-19T10:46:19.666Z,17.77
2022-10-19T10:48:53.430Z,8.32
2022-10-19T10:51:27.028Z,13.82
2022-10-19T10:54:06.453Z,10.95
2022-10-19T10:56:35.293Z,6.47
2022-10-19T10:59:13.980Z,8.38
2022-10-19T11:01:41.590Z,6.78
2022-10-19T11:04:11.123Z,25.80
2022-10-19T11:06:44.622Z,14.07
2022-10-19T11:09:25.856Z,4.75
2022-10-19T11:11:56.163Z,8.43
2022-10-19T11:14:41.320Z,6.47
2022-10-19T11:17:16.308Z,5.32
2022-10-19T11:19:44.519Z,15.55
2022-10-19T11:22:22.500Z,11.05
2022-10-19T11:24:59.604Z,6.95
2022-10-19T11:27:29.029Z,35.83
2022-10-19T11:30:10.821Z,13.27
2022-10-19T11:32:46.031Z,12.20
2022-10-19T11:35:31.474Z,11.65
2022-10-19T11:38:21.804Z,11.93
2022-10-19T11:41:12.870Z,4.82
2022-10-19T11:43:53.677Z,4.97
2022-10-19T11:46:26.250Z,24.20
2022-10-19T11:49:04.844Z,28.40
2022-10-19T11:51:51.856Z,9.13
2022-10-19T11:54:35.060Z,12.65
2022-10-19T11:57:11.687Z,8.15
2022-10-19T11:59:38.552Z,25.48
2022-10-19T12:02:22.249Z,5.07
2022-10-19T12:05:00.931Z,2.85
2022-10-19T12:07:36.716Z,4.38
2022-10-19T12:10:12.713Z,3.88
2022-10-19T12:12:42.608Z,3.60
2022-10-19T12:15:22.873Z,4.55
2022-10-19T12:17:50.480Z,31.75
2022-10-19T12:20:29.460Z,26.58
2022-10-19T12:22:57.332Z,8.75
2022-10-19T12:25:24.389Z,4.63
2022-10-19T12:27:51.608Z,24.50
2022-10-19T12:30:20.111Z,4.35
2022-10-19T12:33:00.839Z,5.90
2022-10-19T12:35:33.097Z,7.97
2022-10-19T12:38:20.014Z,5.65
2022-10-19T12:40:50.960Z,5.35
2022-10-19T12:43:20.116Z,2.75
2022-10-19T12:45:55.613Z,3.42
2022-10-19T12:48:22.891Z,3.78
2022-10-19T12:50:49.350Z,5.28
2022-10-19T12:56:11.492Z,5.45
2022-10-19T13:01:33.514Z,5.30
2022-10-19T13:04:10.868Z,5.32
2022-10-19T13:06:40.958Z,5.60
2022-10-19T13:09:08.951Z,3.40
2022-10-19T13:11:36.039Z,4.57
2022-10-19T13:14:04.110Z,3.63
2022-10-19T13:16:33.555Z,15.20
2022-10-19T13:19:00.274Z,6.35
2022-10-19T13:21:45.104Z,29.23
2022-10-19T13:24:26.710Z,2.42
2022-10-19T13:27:02.291Z,3.33
2022-10-19T13:29:40.765Z,4.07
2022-10-19T13:32:25.999Z,15.80
2022-10-19T13:34:53.149Z,19.50
2022-10-19T13:37:19.610Z,4.68
2022-10-19T13:39:47.243Z,4.35
2022-10-19T13:42:23.977Z,4.53
2022-10-19T13:44:52.966Z,3.42
2022-10-19T13:47:32.529Z,6.25
2022-10-19T13:50:07.110Z,13.57
2022-10-19T13:52:52.510Z,3.22
2022-10-19T13:55:47.311Z,5.05
2022-10-19T13:58:17.056Z,1.88
2022-10-19T14:01:02.413Z,4.30
2022-10-19T14:03:35.543Z,2.90
2022-10-19T14:06:05.021Z,4.80
2022-10-19T14:08:46.915Z,2.40
2022-10-19T14:11:15.666Z,8.25
2022-10-19T14:13:44.874Z,11.50
2022-10-19T14:16:18.321Z,10.55
2022-10-19T14:18:52.699Z,5.30
2022-10-19T14:21:28.579Z,5.55
2022-10-19T14:23:55.168Z,31.77
2022-10-19T14:26:22.628Z,7.68
2022-10-19T14:28:57.165Z,5.25
2022-10-19T14:31:25.288Z,22.85
2022-10-19T14:33:52.597Z,14.23
2022-10-19T14:36:20.795Z,12.98
2022-10-19T14:38:49.015Z,14.43
2022-10-19T14:41:20.606Z,13.90
2022-10-19T14:43:47.077Z,5.30
2022-10-19T14:46:15.046Z,6.15
2022-10-19T14:48:49.242Z,6.07
2022-10-19T14:51:15.690Z,26.17
2022-10-19T14:53:44.598Z,8.13
2022-10-19T14:56:11.022Z,5.55
2022-10-19T14:58:44.621Z,20.70
2022-10-19T15:01:11.631Z,4.22
2022-10-19T15:03:43.529Z,4.65
2022-10-19T15:06:16.799Z,5.65
2022-10-19T15:08:48.559Z,16.42
2022-10-19T15:11:26.156Z,4.57
2022-10-19T15:14:16.164Z,3.50
2022-10-19T15:16:44.434Z,3.60
2022-10-19T15:19:37.297Z,4.72
2022-10-19T15:22:06.752Z,4.65
2022-10-19T15:24:33.201Z,19.25
2022-10-19T15:27:32.285Z,5.32
2022-10-19T15:30:18.151Z,5.93
2022-10-19T15:32:45.421Z,67.03
2022-10-19T15:35:13.165Z,6.18
2022-10-19T15:37:41.920Z,5.38
2022-10-19T15:40:10.210Z,44.25
2022-10-19T15:42:38.775Z,5.47
2022-10-19T15:45:25.285Z,7.97
2022-10-19T15:48:18.440Z,7.75
2022-10-19T15:50:47.852Z,3.42
2022-10-19T15:53:18.148Z,6.95
2022-10-19T15:55:44.731Z,10.43
2022-10-19T15:58:11.694Z,8.88
2022-10-19T16:00:41.972Z,5.18
2022-10-19T16:03:09.147Z,6.43
2022-10-19T16:05:37.549Z,6.50
2022-10-19T16:08:06.085Z,4.43
2022-10-19T16:10:33.364Z,5.90
2022-10-19T16:13:01.103Z,12.07
2022-10-19T16:15:27.536Z,21.90
2022-10-19T16:17:55.489Z,10.27
2022-10-19T16:20:22.651Z,4.55
2022-10-19T16:22:49.248Z,14.55
2022-10-19T16:25:15.865Z,9.60
2022-10-19T16:27:42.348Z,11.77
2022-10-19T16:30:09.189Z,10.45
2022-10-19T16:32:35.695Z,9.25
2022-10-19T16:35:02.161Z,4.20
2022-10-19T16:37:28.616Z,5.80
2022-10-19T16:39:55.009Z,7.13
2022-10-19T16:42:22.295Z,7.95
2022-10-19T16:44:49.444Z,6.72
2022-10-19T16:47:17.018Z,12.85
2022-10-19T16:49:43.766Z,9.15
2022-10-19T16:52:13.267Z,4.75
2022-10-19T16:54:39.752Z,6.43
2022-10-19T16:57:09.798Z,8.48
2022-10-19T16:59:41.332Z,7.00
2022-10-19T17:02:09.598Z,16.38
2022-10-19T17:04:37.718Z,11.25
2022-10-19T17:07:08.802Z,6.43
2022-10-19T17:09:42.740Z,18.30
2022-10-19T17:12:14.748Z,8.90
2022-10-19T17:14:45.655Z,23.63
2022-10-19T17:17:14.237Z,17.88
2022-10-19T17:19:41.196Z,15.10
2022-10-19T17:22:09.418Z,6.85
2022-10-19T17:24:40.514Z,5.80
2022-10-19T17:27:14.725Z,10.40
2022-10-19T17:29:43.104Z,21.58
2022-10-19T17:32:11.057Z,5.38
2022-10-19T17:34:39.808Z,7.38
2022-10-19T17:37:06.903Z,10.80
2022-10-19T17:39:33.983Z,18.55
2022-10-19T17:44:54.491Z,11.60
2022-10-19T17:47:29.026Z,9.10
2022-10-19T17:49:56.803Z,17.33
2022-10-19T17:52:23.313Z,16.67
2022-10-19T17:55:11.070Z,13.57
2022-10-19T17:57:36.626Z,21.50
2022-10-19T18:00:03.973Z,13.13
2022-10-19T18:02:39.839Z,7.18
2022-10-19T18:05:06.441Z,14.13
2022-10-19T18:07:33.042Z,14.55
2022-10-19T18:09:59.750Z,28.23
2022-10-19T18:12:26.701Z,13.38
2022-10-19T18:14:53.193Z,10.30
2022-10-19T18:17:22.748Z,25.95
2022-10-19T18:19:52.025Z,20.73
2022-10-19T18:22:21.681Z,22.80
2022-10-19T18:24:49.503Z,14.68
2022-10-19T18:27:15.943Z,15.70
2022-10-19T18:29:42.396Z,12.35
2022-10-19T18:32:08.849Z,14.20
2022-10-19T18:34:35.238Z,16.58
2022-10-19T18:37:01.865Z,13.57
2022-10-19T18:39:28.328Z,13.00
2022-10-19T18:41:55.105Z,22.08
2022-10-19T18:44:25.499Z,20.77
2022-10-19T18:46:54.575Z,24.38
2022-10-19T18:49:21.132Z,19.42
2022-10-19T18:51:52.356Z,19.92
2022-10-19T18:54:23.512Z,11.52
2022-10-19T18:56:49.978Z,30.05
2022-10-19T18:59:16.615Z,18.52
2022-10-19T19:01:43.414Z,22.70
2022-10-19T19:04:10.025Z,21.13
2022-10-19T19:06:37.774Z,19.27
2022-10-19T19:09:07.506Z,16.27
2022-10-19T19:11:36.899Z,16.42
2022-10-19T19:14:14.983Z,9.48
2022-10-19T19:16:42.249Z,14.55
2022-10-19T19:19:10.116Z,17.52
2022-10-19T19:21:36.890Z,17.10
2022-10-19T19:24:04.533Z,31.73
2022-10-19T19:26:32.344Z,20.88
2022-10-19T19:28:59.033Z,43.90
2022-10-19T19:31:25.777Z,18.10
2022-10-19T19:33:52.320Z,21.88
2022-10-19T19:36:19.734Z,18.35
2022-10-19T19:38:46.234Z,13.48
2022-10-19T19:41:13.724Z,6.63
2022-10-19T19:43:40.820Z,23.58
2022-10-19T19:46:09.544Z,6.53
2022-10-19T19:48:36.755Z,11.75
2022-10-19T19:51:03.273Z,25.00
2022-10-19T19:53:29.769Z,66.93
2022-10-19T19:55:56.375Z,12.73
2022-10-19T19:58:22.978Z,17.15
2022-10-19T20:00:49.510Z,26.52
2022-10-19T20:03:16.296Z,12.20
2022-10-19T20:05:42.799Z,28.63
2022-10-19T20:08:09.696Z,12.45
2022-10-19T20:10:40.277Z,19.88
2022-10-19T20:13:06.849Z,17.45
2022-10-19T20:15:33.306Z,17.00
2022-10-19T20:17:59.691Z,39.95
2022-10-19T20:20:26.104Z,30.15
2022-10-19T20:22:52.526Z,12.07
2022-10-19T20:25:19.032Z,18.83
2022-10-19T20:27:45.514Z,22.23
2022-10-19T20:30:12.029Z,23.23
2022-10-19T20:32:38.808Z,27.42
2022-10-19T20:35:05.907Z,34.80
2022-10-19T20:37:32.424Z,14.85
2022-10-19T20:39:58.950Z,17.77
2022-10-19T20:42:25.369Z,21.33
2022-10-19T20:44:54.610Z,28.58
2022-10-19T20:47:21.076Z,13.63
2022-10-19T20:49:47.676Z,16.88
2022-10-19T20:52:14.083Z,12.10
2022-10-19T20:54:47.766Z,14.85
2022-10-19T20:57:14.280Z,37.88
2022-10-19T20:59:40.719Z,12.25
2022-10-19T21:02:07.111Z,14.65
2022-10-19T21:04:34.455Z,21.17
2022-10-19T21:07:01.060Z,12.52
2022-10-19T21:09:27.648Z,13.48
2022-10-19T21:11:54.046Z,38.97
2022-10-19T21:14:25.387Z,20.25
2022-10-19T21:16:56.617Z,22.73
2022-10-19T21:19:25.137Z,12.20
2022-10-19T21:21:52.950Z,15.13
2022-10-19T21:24:21.004Z,17.15
2022-10-19T21:26:47.899Z,23.35
2022-10-19T21:29:15.189Z,12.50
2022-10-19T21:31:45.115Z,16.52
2022-10-19T21:34:17.724Z,27.92
2022-10-19T21:36:44.365Z,15.98
2022-10-19T21:39:11.023Z,36.78
2022-10-19T21:41:37.453Z,17.27
2022-10-19T21:44:03.893Z,19.65
2022-10-19T21:46:30.379Z,14.68
2022-10-19T21:48:56.992Z,15.90
2022-10-19T21:51:23.405Z,16.25
2022-10-19T21:53:49.880Z,29.05
2022-10-19T21:56:16.519Z,24.38
2022-10-19T21:58:50.123Z,19.38
2022-10-19T22:01:17.352Z,20.58
2022-10-19T22:03:44.038Z,45.17
2022-10-19T22:06:11.132Z,28.98
2022-10-19T22:08:38.017Z,35.67
2022-10-19T22:11:08.308Z,13.15
2022-10-19T22:13:35.615Z,34.85
2022-10-19T22:16:02.979Z,49.22
2022-10-19T22:18:29.380Z,14.38
2022-10-19T22:20:55.752Z,41.90
2022-10-19T22:23:22.144Z,21.60
2022-10-19T22:25:48.504Z,22.55
2022-10-19T22:32:08.075Z,20.05
2022-10-19T22:34:34.446Z,44.67
2022-10-19T22:37:00.883Z,14.35
2022-10-19T22:39:28.041Z,13.77
2022-10-19T22:41:54.588Z,14.57
2022-10-19T22:44:20.967Z,23.10
2022-10-19T22:46:47.502Z,33.58
2022-10-19T22:49:13.892Z,16.42
2022-10-19T22:51:40.351Z,19.08
2022-10-19T22:54:06.741Z,12.18
2022-10-19T22:56:33.117Z,17.88
2022-10-19T22:59:03.507Z,22.85
2022-10-19T23:01:30.057Z,13.93
2022-10-19T23:03:56.726Z,18.52
2022-10-19T23:06:23.405Z,17.55
2022-10-19T23:08:49.921Z,21.13
2022-10-19T23:11:17.043Z,23.08
2022-10-19T23:13:43.697Z,21.02
2022-10-19T23:16:10.143Z,14.00
2022-10-19T23:18:37.776Z,14.32
2022-10-19T23:21:05.922Z,35.67
2022-10-19T23:23:33.380Z,21.38
2022-10-19T23:26:02.852Z,15.95
2022-10-19T23:28:29.940Z,38.28
2022-10-19T23:30:58.038Z,17.63
2022-10-19T23:33:25.682Z,14.18
2022-10-19T23:35:52.123Z,20.95
2022-10-19T23:38:18.755Z,18.15
2022-10-19T23:40:45.164Z,19.52
2022-10-19T23:43:11.812Z,13.48
2022-10-19T23:45:41.220Z,27.02
2022-10-19T23:48:07.704Z,14.65
2022-10-19T23:50:34.142Z,23.20
2022-10-19T23:53:00.632Z,18.35
2022-10-19T23:55:27.056Z,19.10
2022-10-19T23:57:53.543Z,20.73
